Time;durP1;ratioP1;P1;durP2;ratioP2;P2;SDS_P1;SDS_P2;PMS_P1;PMS_P2;Temp;Humidity;BMP_temperature;BMP_pressure;BME280_temperature;BME280_humidity;BME280_pressure;Samples;Min_cycle;Max_cycle;Signal;HPM_P1;HPM_P2
2022/08/14 00:00:14;;;;;;;3.47;2.70;;;18.00;71.90;;;;;;5020088;28;20037;-84
2022/08/14 00:02:40;;;;;;;3.22;2.40;;;17.90;72.00;;;;;;5020971;28;20041;-83
2022/08/14 00:05:10;;;;;;;2.58;2.38;;;17.90;72.00;;;;;;5001642;28;20026;-83
2022/08/14 00:07:36;;;;;;;2.88;2.58;;;17.90;71.90;;;;;;5018448;28;20042;-85
2022/08/14 00:10:04;;;;;;;2.30;2.10;;;17.80;72.10;;;;;;5016388;28;20102;-84
2022/08/14 00:12:32;;;;;;;2.78;2.30;;;17.70;72.40;;;;;;4997622;28;20109;-85
2022/08/14 00:14:58;;;;;;;2.30;2.20;;;17.70;72.90;;;;;;5015027;28;20099;-85
2022/08/14 00:17:25;;;;;;;2.83;2.20;;;17.70;73.20;;;;;;4996819;28;20034;-85
2022/08/14 00:19:51;;;;;;;3.33;2.60;;;17.70;73.40;;;;;;5015929;28;20077;-84
2022/08/14 00:22:17;;;;;;;2.65;2.45;;;17.70;73.40;;;;;;5016567;28;20026;-86
2022/08/14 00:24:43;;;;;;;2.42;2.20;;;17.70;73.50;;;;;;5015826;28;20026;-85
2022/08/14 00:27:10;;;;;;;2.60;2.40;;;17.60;73.50;;;;;;5015738;28;20099;-85
2022/08/14 00:29:35;;;;;;;2.85;2.50;;;17.60;73.80;;;;;;5015016;28;20030;-85
2022/08/14 00:32:01;;;;;;;2.25;2.08;;;17.60;74.10;;;;;;4998274;28;20392;-86
2022/08/14 00:34:27;;;;;;;2.30;2.20;;;17.50;74.30;;;;;;5017665;28;20412;-85
2022/08/14 00:36:52;;;;;;;3.17;2.88;;;17.50;74.60;;;;;;5017482;28;20133;-84
2022/08/14 00:39:18;;;;;;;2.67;2.47;;;17.50;75.00;;;;;;5017671;28;20092;-84
2022/08/14 00:41:45;;;;;;;3.03;2.80;;;17.40;75.40;;;;;;4999915;28;20022;-86
2022/08/14 00:44:10;;;;;;;3.38;2.58;;;17.40;75.70;;;;;;5014349;28;20099;-81
2022/08/14 00:46:37;;;;;;;3.40;3.10;;;17.30;76.20;;;;;;5035757;28;20018;-81
2022/08/14 00:49:03;;;;;;;3.47;3.17;;;17.30;76.70;;;;;;5036116;28;20021;-82
2022/08/14 00:51:31;;;;;;;3.80;3.15;;;17.30;77.20;;;;;;5036232;28;20037;-82
2022/08/14 00:53:57;;;;;;;2.95;2.65;;;17.20;77.50;;;;;;5036128;28;20081;-82
2022/08/14 00:56:24;;;;;;;5.07;2.90;;;17.20;77.70;;;;;;5022953;28;20026;-84
2022/08/14 00:58:50;;;;;;;3.10;2.80;;;17.20;77.80;;;;;;5013781;28;20121;-85
2022/08/14 01:01:17;;;;;;;3.22;2.92;;;17.20;77.90;;;;;;4997994;28;20069;-85
2022/08/14 01:03:44;;;;;;;3.55;2.95;;;17.10;77.60;;;;;;4998508;28;20088;-84
2022/08/14 01:06:12;;;;;;;2.75;2.50;;;17.10;77.50;;;;;;5015501;28;20187;-84
2022/08/14 01:08:39;;;;;;;2.58;2.38;;;17.10;77.40;;;;;;5032328;28;20473;-82
2022/08/14 01:11:05;;;;;;;3.28;2.50;;;17.10;77.40;;;;;;5035337;28;20029;-81
2022/08/14 01:13:35;;;;;;;2.88;2.60;;;17.10;77.50;;;;;;5035082;28;20026;-83
2022/08/14 01:16:04;;;;;;;2.60;2.40;;;17.00;77.70;;;;;;5017186;28;20038;-82
2022/08/14 01:21:20;;;;;;;3.53;2.95;;;17.10;78.40;;;;;;5014744;28;20041;-85
2022/08/14 01:23:49;;;;;;;2.67;2.47;;;17.10;78.50;;;;;;5010155;28;20077;-84
2022/08/14 01:26:19;;;;;;;2.53;2.33;;;17.10;78.60;;;;;;5014515;28;20018;-85
2022/08/14 01:28:50;;;;;;;2.80;2.60;;;17.10;78.60;;;;;;4998992;28;20060;-85
2022/08/14 01:31:18;;;;;;;2.63;2.33;;;17.10;78.50;;;;;;4997219;28;20026;-85
2022/08/14 01:33:47;;;;;;;2.72;2.53;;;17.10;78.50;;;;;;4997590;28;20045;-84
2022/08/14 01:36:15;;;;;;;2.45;2.22;;;17.00;78.60;;;;;;4998083;28;20026;-85
2022/08/14 01:38:44;;;;;;;2.92;2.65;;;17.00;79.00;;;;;;5016311;28;20130;-86
2022/08/14 01:41:12;;;;;;;2.80;2.58;;;16.90;79.50;;;;;;5015835;28;20022;-86
2022/08/14 01:43:49;;;;;;;2.38;2.17;;;17.00;79.80;;;;;;5016140;28;20026;-84
2022/08/14 01:46:22;;;;;;;2.83;2.60;;;16.90;80.00;;;;;;4998392;28;20388;-86
2022/08/14 01:48:51;;;;;;;3.05;2.85;;;16.90;80.40;;;;;;4997731;28;20081;-84
2022/08/14 01:51:21;;;;;;;2.47;2.25;;;16.90;80.90;;;;;;5015571;28;20030;-85
2022/08/14 01:53:53;;;;;;;2.20;2.08;;;16.90;81.20;;;;;;5015905;28;20049;-87
2022/08/14 01:56:19;;;;;;;2.85;2.55;;;16.90;81.40;;;;;;5016977;28;20458;-86
2022/08/14 01:58:48;;;;;;;2.80;2.53;;;16.80;81.50;;;;;;5004563;28;20038;-87
2022/08/14 02:01:18;;;;;;;3.15;2.85;;;16.70;81.70;;;;;;5020306;28;20282;-87
2022/08/14 02:03:46;;;;;;;4.90;2.80;;;16.70;82.00;;;;;;5017227;28;20025;-86
2022/08/14 02:06:13;;;;;;;3.80;3.28;;;16.70;82.10;;;;;;4995937;28;20033;-86
2022/08/14 02:08:40;;;;;;;3.58;3.00;;;16.60;82.20;;;;;;4998672;28;20034;-85
2022/08/14 02:11:21;;;;;;;3.72;2.88;;;16.60;82.50;;;;;;4996123;28;20060;-87
2022/08/14 02:14:00;;;;;;;3.08;2.78;;;16.60;82.60;;;;;;4996244;28;20030;-85
2022/08/14 02:16:28;;;;;;;3.33;2.85;;;16.70;82.80;;;;;;4995907;28;20030;-87
2022/08/14 02:18:59;;;;;;;3.50;2.85;;;16.60;82.80;;;;;;4995401;28;20106;-85
2022/08/14 02:21:26;;;;;;;3.35;3.05;;;16.60;82.80;;;;;;5010816;28;20026;-84
2022/08/14 02:23:54;;;;;;;3.08;2.88;;;16.60;82.80;;;;;;4997677;28;20029;-86
2022/08/14 02:26:27;;;;;;;3.40;3.10;;;16.50;82.80;;;;;;4994696;28;20084;-85
2022/08/14 02:28:58;;;;;;;3.47;3.17;;;16.40;82.70;;;;;;4996218;28;20026;-84
2022/08/14 02:31:28;;;;;;;4.07;3.05;;;16.40;82.50;;;;;;4996009;28;20232;-84
2022/08/14 02:33:53;;;;;;;2.83;2.63;;;16.40;82.40;;;;;;4978132;28;20022;-86
2022/08/14 02:36:19;;;;;;;4.13;2.92;;;16.40;82.30;;;;;;4994744;28;20033;-84
2022/08/14 02:38:45;;;;;;;3.28;2.97;;;16.40;82.00;;;;;;5014195;28;20461;-84
2022/08/14 02:41:12;;;;;;;3.13;2.58;;;16.40;81.50;;;;;;5014558;28;20041;-85
2022/08/14 02:43:39;;;;;;;2.30;2.10;;;16.40;81.20;;;;;;5016622;28;20096;-85
2022/08/14 02:46:11;;;;;;;3.15;2.72;;;16.30;81.00;;;;;;5017700;28;20022;-85
2022/08/14 02:48:39;;;;;;;3.15;2.20;;;16.30;81.20;;;;;;5019355;28;20041;-86
2022/08/14 02:51:09;;;;;;;2.42;2.20;;;16.30;81.10;;;;;;5001424;28;20030;-85
2022/08/14 02:53:38;;;;;;;3.13;2.70;;;16.30;81.20;;;;;;5018621;28;20105;-85
2022/08/14 02:56:04;;;;;;;2.33;2.13;;;16.20;81.20;;;;;;5025743;28;20109;-84
2022/08/14 02:58:31;;;;;;;2.60;2.40;;;16.20;81.30;;;;;;5002433;28;20124;-84
2022/08/14 03:00:57;;;;;;;2.80;2.60;;;16.10;81.40;;;;;;5007551;28;20030;-86
2022/08/14 03:03:23;;;;;;;2.92;2.63;;;16.10;81.50;;;;;;4999800;28;20033;-86
2022/08/14 03:05:51;;;;;;;2.78;2.58;;;16.10;81.50;;;;;;5006420;28;20026;-85
2022/08/14 03:08:17;;;;;;;2.90;2.60;;;16.10;81.70;;;;;;5000095;28;20163;-85
2022/08/14 03:10:44;;;;;;;2.40;2.20;;;16.10;82.00;;;;;;5008389;28;20022;-86
2022/08/14 03:13:10;;;;;;;2.45;2.22;;;16.10;82.20;;;;;;5001149;28;20164;-85
2022/08/14 03:15:43;;;;;;;3.83;2.60;;;16.00;82.40;;;;;;5049045;23;20050;-78
2022/08/14 03:18:10;;;;;;;2.85;2.45;;;16.00;82.70;;;;;;5059641;28;20020;-80
2022/08/14 03:20:36;;;;;;;3.00;2.20;;;16.00;82.80;;;;;;5056467;28;20081;-78
2022/08/14 03:23:02;;;;;;;2.20;2.10;;;16.10;83.00;;;;;;5056544;28;20016;-79
2022/08/14 03:25:32;;;;;;;2.50;2.30;;;16.00;83.20;;;;;;5053708;28;20036;-80
2022/08/14 03:28:02;;;;;;;2.85;2.63;;;16.00;83.40;;;;;;5047165;28;20037;-79
2022/08/14 03:30:30;;;;;;;2.70;2.50;;;16.00;83.70;;;;;;5039943;28;20105;-79
2022/08/14 03:32:57;;;;;;;3.38;2.50;;;16.00;83.70;;;;;;5038641;28;20033;-80
2022/08/14 03:35:24;;;;;;;2.58;2.28;;;16.00;83.70;;;;;;5038541;28;20032;-80
2022/08/14 03:37:51;;;;;;;2.83;2.63;;;16.00;83.80;;;;;;5054736;28;20053;-80
2022/08/14 03:40:19;;;;;;;4.47;2.42;;;15.90;83.70;;;;;;5037760;28;20025;-80
2022/08/14 03:42:45;;;;;;;2.95;2.70;;;16.00;83.60;;;;;;5047904;28;20115;-80
2022/08/14 03:45:11;;;;;;;3.03;2.83;;;15.90;83.80;;;;;;5027456;28;20028;-80
2022/08/14 03:47:39;;;;;;;2.40;2.20;;;15.90;83.70;;;;;;5027775;28;20030;-81
2022/08/14 03:50:09;;;;;;;2.67;2.47;;;15.90;83.40;;;;;;5025088;28;20017;-79
2022/08/14 03:52:41;;;;;;;2.92;2.72;;;15.80;83.30;;;;;;5033865;28;20462;-80
2022/08/14 03:55:10;;;;;;;2.90;2.60;;;15.70;83.30;;;;;;5054390;28;20025;-80
2022/08/14 03:57:37;;;;;;;2.58;2.38;;;15.70;83.60;;;;;;5058260;28;20029;-81
2022/08/14 04:00:10;;;;;;;2.90;2.70;;;15.70;83.70;;;;;;5054379;28;20037;-80
2022/08/14 04:02:37;;;;;;;2.78;2.42;;;15.60;83.80;;;;;;5024602;28;20021;-80
2022/08/14 04:05:05;;;;;;;2.83;2.63;;;15.60;83.80;;;;;;5021549;28;20399;-81
2022/08/14 04:07:32;;;;;;;3.92;3.13;;;15.60;84.00;;;;;;5020501;28;20495;-79
2022/08/14 04:09:57;;;;;;;2.92;2.72;;;15.60;84.10;;;;;;5034118;28;20113;-79
2022/08/14 04:12:23;;;;;;;2.90;2.70;;;15.60;84.20;;;;;;5028430;28;20041;-79
2022/08/14 04:14:51;;;;;;;2.63;2.42;;;15.60;84.50;;;;;;5037623;28;20359;-80
2022/08/14 04:17:18;;;;;;;2.63;2.42;;;15.50;84.70;;;;;;5028531;28;20036;-79
2022/08/14 04:19:45;;;;;;;2.63;2.42;;;15.60;84.90;;;;;;5014069;28;20034;-80
2022/08/14 04:22:12;;;;;;;2.20;2.00;;;15.60;84.90;;;;;;5025460;28;20032;-81
2022/08/14 04:24:39;;;;;;;2.80;2.60;;;15.60;84.80;;;;;;5029128;28;20041;-82
2022/08/14 04:27:12;;;;;;;2.40;2.20;;;15.60;84.60;;;;;;5040377;28;20028;-82
2022/08/14 04:29:42;;;;;;;2.80;2.50;;;15.70;84.40;;;;;;5063856;28;20021;-81
2022/08/14 04:32:09;;;;;;;2.65;2.42;;;15.70;84.10;;;;;;5055485;28;20042;-83
2022/08/14 04:34:40;;;;;;;3.33;2.65;;;15.70;84.00;;;;;;5010756;28;20484;-81
2022/08/14 04:45:24;;;;;;;2.60;2.40;;;15.80;81.20;;;;;;5045990;28;20040;-83
2022/08/14 04:50:37;;;;;;;2.97;2.78;;;15.70;82.20;;;;;;5036052;28;20546;-82
2022/08/14 04:53:03;;;;;;;3.22;2.28;;;15.70;82.40;;;;;;5024214;28;20021;-82
2022/08/14 04:55:29;;;;;;;2.47;2.28;;;15.70;82.30;;;;;;5041188;28;20028;-82
2022/08/14 04:57:55;;;;;;;2.95;2.45;;;15.80;82.20;;;;;;5038344;28;20387;-83
2022/08/14 05:00:21;;;;;;;2.22;2.13;;;15.80;81.90;;;;;;5018904;28;20104;-84
2022/08/14 05:02:48;;;;;;;2.60;2.40;;;15.90;81.30;;;;;;5036230;28;20040;-83
2022/08/14 05:05:13;;;;;;;2.65;2.40;;;15.90;81.00;;;;;;5036354;28;20033;-82
2022/08/14 05:07:41;;;;;;;2.58;2.38;;;16.00;80.70;;;;;;5018229;28;20367;-85
2022/08/14 05:10:07;;;;;;;2.70;2.50;;;16.00;80.40;;;;;;5037042;28;20034;-83
2022/08/14 05:12:33;;;;;;;2.83;2.63;;;16.00;80.10;;;;;;5049726;28;20017;-81
2022/08/14 05:14:58;;;;;;;2.53;2.33;;;16.20;79.80;;;;;;5052089;28;20142;-83
2022/08/14 05:17:25;;;;;;;3.10;2.80;;;16.30;79.30;;;;;;5041363;28;20029;-84
2022/08/14 05:19:51;;;;;;;2.42;2.22;;;16.30;79.10;;;;;;5046492;28;20025;-82
2022/08/14 05:22:18;;;;;;;2.38;2.17;;;16.40;78.70;;;;;;5053064;28;20076;-83
2022/08/14 05:24:48;;;;;;;2.47;2.20;;;16.40;78.50;;;;;;5052200;28;20072;-83
2022/08/14 05:27:13;;;;;;;2.80;2.40;;;16.50;78.00;;;;;;5051038;28;20021;-82
2022/08/14 05:29:43;;;;;;;2.40;2.20;;;16.60;77.90;;;;;;5037239;28;20060;-80
2022/08/14 05:32:09;;;;;;;2.28;2.08;;;16.70;77.50;;;;;;5055325;28;19998;-80
2022/08/14 05:34:35;;;;;;;2.63;2.42;;;16.80;77.20;;;;;;5051687;28;20030;-81
2022/08/14 05:37:01;;;;;;;2.67;2.42;;;16.80;76.90;;;;;;5037787;28;20033;-83
2022/08/14 05:39:28;;;;;;;2.50;2.30;;;16.90;76.80;;;;;;5037713;28;20033;-82
2022/08/14 05:41:54;;;;;;;2.20;2.08;;;17.00;76.50;;;;;;5038391;28;20029;-83
2022/08/14 05:44:20;;;;;;;2.28;2.15;;;17.10;76.10;;;;;;5039606;28;20017;-82
2022/08/14 05:46:46;;;;;;;1.95;1.85;;;17.10;75.70;;;;;;5043783;28;20051;-82
2022/08/14 05:49:12;;;;;;;2.47;2.15;;;17.30;75.60;;;;;;5029901;28;20052;-82
2022/08/14 05:51:38;;;;;;;2.28;2.08;;;17.30;75.30;;;;;;5020907;28;20022;-83
2022/08/14 05:54:04;;;;;;;3.40;1.73;;;17.40;75.00;;;;;;5022498;28;20044;-83
2022/08/14 05:56:29;;;;;;;2.15;2.05;;;17.40;74.70;;;;;;5038531;28;20554;-83
2022/08/14 05:58:55;;;;;;;2.28;2.13;;;17.50;74.50;;;;;;5050636;28;20026;-82
2022/08/14 06:01:21;;;;;;;2.25;2.10;;;17.60;74.10;;;;;;5049904;28;20018;-82
2022/08/14 06:03:47;;;;;;;2.30;2.10;;;17.70;73.80;;;;;;5043590;28;20049;-83
2022/08/14 06:06:13;;;;;;;2.17;2.08;;;17.80;73.30;;;;;;5029182;28;20034;-82
2022/08/14 06:08:38;;;;;;;2.75;2.33;;;17.90;72.80;;;;;;5025612;28;20049;-83
2022/08/14 06:11:06;;;;;;;2.30;2.13;;;18.00;72.40;;;;;;5036129;28;20022;-80
2022/08/14 06:13:33;;;;;;;1.92;1.83;;;18.20;71.90;;;;;;5020814;28;20400;-82
2022/08/14 06:15:59;;;;;;;1.73;1.63;;;18.40;71.50;;;;;;5017529;28;20396;-82
2022/08/14 06:18:25;;;;;;;2.17;1.98;;;18.50;71.10;;;;;;5020475;28;20026;-82
2022/08/14 06:20:51;;;;;;;1.98;1.88;;;19.40;70.80;;;;;;5021727;28;20040;-82
2022/08/14 06:23:17;;;;;;;1.67;1.58;;;22.90;66.30;;;;;;5020473;28;20105;-81
2022/08/14 06:25:43;;;;;;;1.58;1.48;;;;;;;;;;5013324;28;20055;-81
2022/08/14 06:28:19;;;;;;;1.70;1.60;;;29.20;49.90;;;;;;5039777;28;20036;-81
2022/08/14 06:30:45;;;;;;;1.88;1.77;;;31.00;46.30;;;;;;5041116;28;20636;-80
2022/08/14 06:33:11;;;;;;;1.65;1.55;;;32.00;43.80;;;;;;5039245;28;20443;-81
2022/08/14 06:35:37;;;;;;;1.77;1.67;;;32.70;42.50;;;;;;5029174;28;20113;-80
2022/08/14 06:38:03;;;;;;;1.92;1.60;;;33.40;41.30;;;;;;5039133;28;20030;-79
2022/08/14 06:40:31;;;;;;;1.23;1.23;;;33.80;41.00;;;;;;5017709;28;20126;-84
2022/08/14 06:43:06;;;;;;;1.48;1.38;;;34.20;39.90;;;;;;5020685;28;20032;-84
2022/08/14 06:45:33;;;;;;;1.67;1.58;;;34.50;39.20;;;;;;5024458;28;20387;-84
2022/08/14 06:48:00;;;;;;;1.90;1.80;;;34.90;39.10;;;;;;5005939;28;20154;-84
2022/08/14 06:50:26;;;;;;;1.80;1.70;;;35.00;38.20;;;;;;5031356;28;20083;-83
2022/08/14 06:52:52;;;;;;;1.63;1.52;;;35.00;38.60;;;;;;5026027;28;20622;-83
2022/08/14 06:55:18;;;;;;;1.80;1.70;;;35.00;38.20;;;;;;5042253;28;20028;-84
2022/08/14 06:57:47;;;;;;;1.60;1.50;;;35.00;37.90;;;;;;5027658;28;20034;-83
2022/08/14 07:00:25;;;;;;;1.42;1.40;;;34.00;37.60;;;;;;5006928;28;20026;-82
2022/08/14 07:05:46;;;;;;;2.10;2.00;;;27.70;42.90;;;;;;5044077;28;20490;-83
2022/08/14 07:08:15;;;;;;;1.90;1.80;;;25.90;46.60;;;;;;5043491;28;20026;-81
2022/08/14 07:10:42;;;;;;;2.28;2.15;;;24.40;49.90;;;;;;5050494;28;20040;-81
2022/08/14 07:13:09;;;;;;;1.70;1.60;;;23.40;52.10;;;;;;5041174;28;20101;-80
2022/08/14 07:15:35;;;;;;;2.08;1.98;;;22.80;54.00;;;;;;5042084;28;20105;-80
2022/08/14 07:18:01;;;;;;;2.10;1.95;;;22.30;55.30;;;;;;5047022;28;20025;-81
2022/08/14 07:20:27;;;;;;;1.80;1.70;;;21.90;56.00;;;;;;5036995;28;20083;-81
2022/08/14 07:22:57;;;;;;;2.10;2.00;;;21.80;56.80;;;;;;5044100;28;20033;-81
2022/08/14 07:25:23;;;;;;;2.33;2.13;;;21.70;57.40;;;;;;5036589;28;20028;-80
2022/08/14 07:27:49;;;;;;;2.42;2.22;;;21.60;57.90;;;;;;5029574;28;20054;-81
2022/08/14 07:30:15;;;;;;;2.72;2.10;;;21.60;58.40;;;;;;5021132;28;20029;-81
2022/08/14 07:32:41;;;;;;;2.20;2.10;;;21.60;58.70;;;;;;5025321;28;20078;-85
2022/08/14 07:35:07;;;;;;;2.20;2.10;;;21.60;58.70;;;;;;5032437;28;20022;-79
2022/08/14 07:37:34;;;;;;;2.78;2.05;;;21.70;58.90;;;;;;5041537;28;20022;-82
2022/08/14 07:40:01;;;;;;;2.55;2.35;;;21.70;59.00;;;;;;5048934;28;20455;-81
2022/08/14 07:42:27;;;;;;;1.98;1.83;;;21.80;58.90;;;;;;5048522;28;20051;-81
2022/08/14 07:44:53;;;;;;;2.10;2.00;;;21.90;58.80;;;;;;5031213;28;20033;-81
2022/08/14 07:47:19;;;;;;;2.50;1.92;;;22.00;58.30;;;;;;5046594;28;20026;-82
2022/08/14 07:50:03;;;;;;;2.60;2.10;;;22.10;58.40;;;;;;5047982;28;20041;-81
2022/08/14 07:52:29;;;;;;;3.45;2.20;;;22.20;58.30;;;;;;5048245;28;20014;-81
2022/08/14 07:54:55;;;;;;;2.25;2.05;;;22.40;57.20;;;;;;5031548;28;20021;-81
2022/08/14 07:57:21;;;;;;;2.40;2.20;;;22.50;57.00;;;;;;5048884;28;20031;-81
2022/08/14 07:59:47;;;;;;;2.28;1.95;;;22.70;56.80;;;;;;5031013;28;20073;-82
2022/08/14 08:02:15;;;;;;;2.10;1.95;;;22.80;56.30;;;;;;5012111;28;20057;-81
2022/08/14 08:04:45;;;;;;;6.97;2.33;;;23.00;55.90;;;;;;5012496;28;20428;-82
2022/08/14 08:07:12;;;;;;;2.08;1.88;;;23.20;54.70;;;;;;5022403;28;20113;-81
2022/08/14 08:09:49;;;;;;;2.00;1.88;;;23.30;53.40;;;;;;5030173;28;20028;-81
2022/08/14 08:12:16;;;;;;;2.28;2.08;;;23.50;53.10;;;;;;5032557;28;20026;-81
2022/08/14 08:14:42;;;;;;;3.10;2.10;;;23.60;53.10;;;;;;5049091;28;20025;-82
2022/08/14 08:17:09;;;;;;;3.97;2.10;;;23.70;52.60;;;;;;5047998;28;20030;-81
2022/08/14 08:19:36;;;;;;;3.78;2.17;;;23.80;52.80;;;;;;5046640;28;20057;-81
2022/08/14 08:22:02;;;;;;;4.47;2.78;;;24.00;52.40;;;;;;5034965;28;20040;-79
2022/08/14 08:24:28;;;;;;;2.70;1.70;;;24.20;51.60;;;;;;5055462;28;20033;-81
2022/08/14 08:26:54;;;;;;;2.00;1.80;;;24.30;51.60;;;;;;5055228;28;20018;-80
2022/08/14 08:29:23;;;;;;;7.07;2.30;;;24.40;51.20;;;;;;5033631;28;20117;-80
2022/08/14 08:31:50;;;;;;;2.47;2.28;;;24.50;51.40;;;;;;5036647;28;20097;-80
2022/08/14 08:34:20;;;;;;;1.83;1.73;;;24.50;49.90;;;;;;5036927;28;20097;-79
2022/08/14 08:36:46;;;;;;;2.40;2.17;;;24.70;50.50;;;;;;5031869;28;20014;-81
2022/08/14 08:39:15;;;;;;;2.05;1.95;;;24.80;49.90;;;;;;5039209;28;20044;-79
2022/08/14 08:41:47;;;;;;;2.38;2.10;;;24.90;49.90;;;;;;5056998;28;20200;-79
2022/08/14 08:44:13;;;;;;;2.20;2.00;;;25.10;49.60;;;;;;5056858;28;20079;-80
2022/08/14 08:46:42;;;;;;;2.75;1.92;;;25.30;49.40;;;;;;5051696;28;20037;-79
2022/08/14 08:49:09;;;;;;;2.33;1.80;;;25.30;49.30;;;;;;5052622;28;20060;-79
2022/08/14 08:51:39;;;;;;;3.85;1.88;;;25.30;48.80;;;;;;5034865;28;20025;-80
2022/08/14 08:54:08;;;;;;;2.70;2.25;;;25.50;49.00;;;;;;5031553;28;20022;-81
2022/08/14 08:56:35;;;;;;;2.17;1.98;;;25.50;48.60;;;;;;5030614;28;20033;-80
2022/08/14 08:59:02;;;;;;;5.55;2.30;;;25.60;48.70;;;;;;5030470;28;20086;-81
2022/08/14 09:01:32;;;;;;;2.25;2.05;;;25.60;48.40;;;;;;5039968;28;20411;-81
2022/08/14 09:04:02;;;;;;;1.70;1.60;;;25.70;48.50;;;;;;5048932;28;20028;-81
2022/08/14 09:06:27;;;;;;;2.30;1.88;;;26.00;48.30;;;;;;5046787;28;20025;-81
2022/08/14 09:08:53;;;;;;;3.70;2.15;;;26.10;48.10;;;;;;5029282;28;20033;-81
2022/08/14 09:11:19;;;;;;;2.28;2.03;;;26.10;47.60;;;;;;5021953;28;20125;-82
2022/08/14 09:13:44;;;;;;;2.33;2.22;;;26.20;47.80;;;;;;5042341;28;20399;-81
2022/08/14 09:16:10;;;;;;;2.42;2.17;;;26.30;47.50;;;;;;5042274;23;20039;-84
2022/08/14 09:18:39;;;;;;;6.22;2.50;;;26.30;47.60;;;;;;4981874;28;20051;-84
2022/08/14 09:21:06;;;;;;;2.15;2.03;;;26.60;47.60;;;;;;4982050;28;20055;-84
2022/08/14 09:23:32;;;;;;;2.70;2.50;;;26.80;47.60;;;;;;4982849;28;20030;-85
2022/08/14 09:25:58;;;;;;;3.67;2.25;;;27.00;46.30;;;;;;4982531;28;20033;-85
2022/08/14 09:28:24;;;;;;;2.53;2.28;;;27.00;45.90;;;;;;4981147;28;20027;-83
2022/08/14 09:30:55;;;;;;;2.13;2.00;;;27.10;45.90;;;;;;4980161;28;20026;-83
2022/08/14 09:33:39;;;;;;;5.18;2.83;;;27.00;45.50;;;;;;4982613;28;20038;-83
2022/08/14 09:36:33;;;;;;;2.65;2.45;;;27.10;45.60;;;;;;4981265;28;20029;-83
2022/08/14 09:39:11;;;;;;;5.25;2.33;;;27.20;45.30;;;;;;4981161;28;20033;-83
2022/08/14 09:41:56;;;;;;;2.67;2.47;;;27.30;44.90;;;;;;4983168;28;20042;-82
2022/08/14 09:44:55;;;;;;;2.55;2.10;;;27.40;45.00;;;;;;4985215;28;20370;-83
2022/08/14 09:47:52;;;;;;;3.03;2.58;;;27.50;44.70;;;;;;4983153;28;20046;-84
2022/08/14 09:50:24;;;;;;;2.30;1.88;;;27.40;43.90;;;;;;4982191;28;20029;-84
2022/08/14 09:52:58;;;;;;;2.83;2.63;;;27.30;44.50;;;;;;4984461;28;20034;-84
2022/08/14 09:55:26;;;;;;;2.53;2.33;;;27.50;44.80;;;;;;4986735;28;20045;-83
2022/08/14 09:58:05;;;;;;;2.33;2.20;;;27.80;44.30;;;;;;4987675;28;20083;-84
2022/08/14 10:01:00;;;;;;;2.65;2.38;;;27.90;44.10;;;;;;4987506;28;20022;-84
2022/08/14 10:03:29;;;;;;;3.10;2.90;;;;;;;;;;4983904;28;20315;-83
2022/08/14 10:06:08;;;;;;;2.45;2.25;;;28.00;42.90;;;;;;4985687;28;20023;-84
2022/08/14 10:08:49;;;;;;;2.47;2.20;;;28.00;43.50;;;;;;4986203;28;20054;-84
2022/08/14 10:11:19;;;;;;;2.50;2.40;;;28.10;42.30;;;;;;4986289;28;20046;-84
2022/08/14 10:13:47;;;;;;;2.65;2.38;;;28.30;42.30;;;;;;4987882;28;20094;-84
2022/08/14 10:16:14;;;;;;;2.50;2.30;;;28.40;42.40;;;;;;4987356;28;20022;-81
2022/08/14 10:18:40;;;;;;;3.08;2.75;;;28.40;42.10;;;;;;5000117;28;20038;-81
2022/08/14 10:21:08;;;;;;;2.63;2.42;;;28.40;40.40;;;;;;4999860;28;20034;-82
2022/08/14 10:23:44;;;;;;;2.80;2.58;;;28.30;40.90;;;;;;4998463;28;20033;-82
2022/08/14 10:26:15;;;;;;;2.58;2.38;;;28.40;41.30;;;;;;4999464;28;20023;-83
2022/08/14 10:28:47;;;;;;;2.28;2.17;;;28.60;41.50;;;;;;4999514;28;20030;-81
2022/08/14 10:31:36;;;;;;;2.58;2.38;;;28.80;41.50;;;;;;4998963;28;20015;-81
2022/08/14 10:34:17;;;;;;;2.53;2.33;;;28.90;40.20;;;;;;4998886;28;20019;-81
2022/08/14 10:36:48;;;;;;;2.38;2.22;;;28.80;39.20;;;;;;4999735;28;20194;-80
2022/08/14 10:39:20;;;;;;;2.22;2.10;;;29.00;40.30;;;;;;5000029;28;20015;-82
2022/08/14 10:41:47;;;;;;;2.33;2.13;;;29.20;40.80;;;;;;4991321;28;20058;-84
2022/08/14 10:44:16;;;;;;;2.10;2.00;;;29.40;40.70;;;;;;4987511;28;20034;-85
2022/08/14 10:46:57;;;;;;;2.40;2.30;;;29.40;39.70;;;;;;4982004;28;20101;-85
2022/08/14 10:49:25;;;;;;;1.83;1.73;;;29.50;40.00;;;;;;4984204;28;20030;-85
2022/08/14 10:52:07;;;;;;;2.55;2.30;;;29.70;39.80;;;;;;4982549;28;20036;-85
2022/08/14 10:54:43;;;;;;;2.80;2.60;;;29.80;40.00;;;;;;4982783;28;20481;-84
2022/08/14 10:57:14;;;;;;;2.15;2.05;;;29.90;39.80;;;;;;4977861;28;20121;-85
2022/08/14 10:59:58;;;;;;;2.30;2.10;;;30.00;38.60;;;;;;4979099;28;20030;-84
2022/08/14 11:02:28;;;;;;;2.22;2.08;;;29.80;38.40;;;;;;4977611;28;20274;-85
2022/08/14 11:05:17;;;;;;;4.80;2.25;;;29.60;39.00;;;;;;4976884;28;20461;-85
2022/08/14 11:07:55;;;;;;;2.47;2.28;;;29.50;38.40;;;;;;4980207;28;20121;-85
2022/08/14 11:10:24;;;;;;;2.30;2.10;;;29.50;38.90;;;;;;4980621;28;20031;-86
2022/08/14 11:12:54;;;;;;;2.35;2.20;;;29.70;39.30;;;;;;4978158;28;20477;-85
2022/08/14 11:15:23;;;;;;;3.25;2.50;;;29.80;39.20;;;;;;4976695;28;20030;-84
2022/08/14 11:17:50;;;;;;;2.40;2.20;;;29.90;39.60;;;;;;4997308;28;20030;-83
2022/08/14 11:20:26;;;;;;;2.28;2.17;;;30.00;39.60;;;;;;4998292;28;20112;-84
2022/08/14 11:22:58;;;;;;;2.22;2.03;;;30.10;38.70;;;;;;5000026;28;20026;-83
2022/08/14 11:25:28;;;;;;;2.70;2.50;;;30.30;39.10;;;;;;5004119;28;20080;-83
2022/08/14 11:27:57;;;;;;;2.63;2.42;;;30.60;38.80;;;;;;5004562;28;20087;-82
2022/08/14 11:30:26;;;;;;;2.35;2.25;;;30.80;38.70;;;;;;4981542;28;20029;-82
2022/08/14 11:32:55;;;;;;;2.15;2.05;;;30.80;38.70;;;;;;4973062;28;20044;-82
2022/08/14 11:35:23;;;;;;;2.55;2.38;;;30.80;37.80;;;;;;5000107;28;20416;-83
2022/08/14 11:38:00;;;;;;;2.38;2.22;;;31.00;37.30;;;;;;5002787;28;20034;-83
2022/08/14 11:40:29;;;;;;;2.20;2.10;;;31.10;36.90;;;;;;5005196;28;20101;-83
2022/08/14 11:42:56;;;;;;;2.20;2.00;;;31.10;36.90;;;;;;5003776;28;20026;-83
2022/08/14 11:45:23;;;;;;;2.25;2.15;;;31.20;37.10;;;;;;5002730;28;20030;-84
2022/08/14 11:47:53;;;;;;;2.10;2.00;;;31.40;37.60;;;;;;4996296;28;20026;-83
2022/08/14 11:50:23;;;;;;;2.50;2.30;;;31.40;36.20;;;;;;5001235;28;20026;-83
2022/08/14 11:52:50;;;;;;;2.55;2.28;;;31.20;36.40;;;;;;4991789;28;20018;-83
2022/08/14 11:55:17;;;;;;;2.60;2.40;;;31.10;37.10;;;;;;5003137;28;20055;-83
2022/08/14 11:57:44;;;;;;;2.17;2.08;;;31.10;37.40;;;;;;4976055;28;20037;-84
2022/08/14 12:00:17;;;;;;;2.70;2.50;;;31.10;37.30;;;;;;5002456;28;20044;-85
2022/08/14 12:02:57;;;;;;;2.33;2.22;;;31.00;37.60;;;;;;5001346;28;20081;-85
2022/08/14 12:05:31;;;;;;;2.83;2.35;;;30.90;35.90;;;;;;4987242;28;20026;-83
2022/08/14 12:07:58;;;;;;;2.58;2.40;;;30.60;37.30;;;;;;5004558;28;20027;-81
2022/08/14 12:10:24;;;;;;;2.17;2.08;;;30.70;37.40;;;;;;5005444;28;20110;-85
2022/08/14 12:12:55;;;;;;;2.22;2.13;;;30.80;36.70;;;;;;4999358;28;20148;-84
2022/08/14 12:15:34;;;;;;;2.60;2.40;;;30.90;36.70;;;;;;5006520;28;20030;-83
2022/08/14 12:18:01;;;;;;;2.28;2.17;;;31.00;36.30;;;;;;5009929;28;20038;-85
2022/08/14 12:20:36;;;;;;;2.13;2.00;;;30.90;35.30;;;;;;5003282;28;20088;-84
2022/08/14 12:23:04;;;;;;;2.00;1.90;;;30.80;34.50;;;;;;5006744;28;20081;-84
2022/08/14 12:25:30;;;;;;;2.83;2.10;;;30.60;35.10;;;;;;5010685;28;20050;-83
2022/08/14 12:27:59;;;;;;;2.55;2.25;;;30.60;35.70;;;;;;5010613;28;20050;-85
2022/08/14 12:30:28;;;;;;;2.28;2.03;;;30.70;35.20;;;;;;5009143;28;20404;-84
2022/08/14 12:32:55;;;;;;;2.70;2.50;;;30.70;36.00;;;;;;5008746;28;20350;-85
2022/08/14 12:35:22;;;;;;;2.47;2.28;;;30.80;36.80;;;;;;5000649;28;20046;-84
2022/08/14 12:37:51;;;;;;;2.58;2.38;;;30.90;37.00;;;;;;5006807;28;20057;-82
2022/08/14 12:40:23;;;;;;;2.17;2.08;;;31.10;35.20;;;;;;5010858;28;20049;-85
2022/08/14 12:42:51;;;;;;;2.65;2.45;;;31.10;35.60;;;;;;4999280;28;20018;-83
2022/08/14 12:45:18;;;;;;;2.33;2.10;;;31.40;36.10;;;;;;4999730;28;20026;-84
2022/08/14 12:47:45;;;;;;;2.00;1.90;;;31.40;34.60;;;;;;4982726;28;20027;-84
2022/08/14 12:50:12;;;;;;;2.65;2.20;;;31.40;35.40;;;;;;5002912;28;20023;-83
2022/08/14 12:52:39;;;;;;;2.88;2.58;;;31.40;34.60;;;;;;4983160;28;20033;-81
2022/08/14 12:55:09;;;;;;;1.70;1.60;;;31.40;35.40;;;;;;4999838;28;20034;-84
2022/08/14 12:57:41;;;;;;;2.10;2.00;;;31.60;33.80;;;;;;5001973;28;20019;-85
2022/08/14 13:00:18;;;;;;;2.80;2.58;;;31.50;35.70;;;;;;5000493;28;20097;-85
2022/08/14 13:02:50;;;;;;;3.10;2.80;;;31.40;36.80;;;;;;5006321;28;20034;-85
2022/08/14 13:05:21;;;;;;;3.50;3.03;;;31.20;38.20;;;;;;5003449;28;20449;-82
2022/08/14 13:07:50;;;;;;;5.53;2.77;;;31.30;38.70;;;;;;4998302;28;20034;-83
2022/08/14 13:10:17;;;;;;;2.78;2.58;;;31.20;39.00;;;;;;4997095;28;20297;-84
2022/08/14 13:12:43;;;;;;;2.67;2.47;;;31.10;38.60;;;;;;4998772;28;20034;-85